Barcelona Knutsen — EACW — position and weather

sailwx.info

Track history (hours):
 
Tides and Currents Weather Stations Pressure Air Temp Water Temp Dewpoint Dewpoint Depression Visibility Wind Speed Wind Dir Waves Ship Positions

Barcelona Knutsen

Last reported at 2017-May-24 07:45 UTC. Time now 2017-May-28 12:27 UTC.
Position N 35°47' W 007°28'.

Length 290 m; draft 10 m.

Type: Tanker. MMSI: 224436000.

Date/timePositionNaut miles runAvg speedWind from/ knotsBaromVisibWave heightAir tempDewpointWater temp
2017-May-24 07:45N 35°47' W 007°28'412.0
2017-May-24 07:25N 35°48' W 007°23'2113.3
2017-May-24 05:51N 35°51' W 006°58'2513.3
2017-May-24 03:56N 35°59' W 006°28'1010.0
2017-May-24 02:56N 35°58' W 006°16'712.4
2017-May-24 02:24N 35°58' W 006°08'712.3
2017-May-24 01:52N 35°58' W 005°60'712.4
2017-May-24 01:21N 35°58' W 005°52'412.2
2017-May-24 01:00N 35°58' W 005°46'713.0
2017-May-24 00:30N 35°58' W 005°38'612.8
2017-May-24 00:00N 35°59' W 005°31'612.3
2017-May-23 23:30N 36°02' W 005°24'2 4.9
2017-May-23 23:00N 36°03' W 005°21'4 8.1
2017-May-23 22:30N 36°04' W 005°16'713.7
2017-May-23 22:00N 36°04' W 005°08'713.5
2017-May-23 21:30N 36°04' W 004°60'20413.1
2017-May-23 05:58N 36°32' W 000°49'711.4
2017-May-23 05:24N 36°34' W 000°41'5711.2
2017-May-23 00:20N 36°52' E 000°26'3811.3
2017-May-22 21:00N 37°05' E 001°10'611.1
2017-May-22 20:26N 37°08' E 001°17'511.3
2017-May-22 20:00N 37°09' E 001°23'611.5
2017-May-22 19:30N 37°11' E 001°30'611.7
2017-May-22 19:00N 37°13' E 001°37'611.8
2017-May-22 18:30N 37°15' E 001°44'612.2
2017-May-22 18:00N 37°17' E 001°51'612.4
2017-May-22 17:30N 37°20' E 001°58'812.5
2017-May-22 16:54N 37°22' E 002°07'612.5
2017-May-22 16:24N 37°23' E 002°15'512.4
2017-May-22 16:00N 37°25' E 002°21'612.5
2017-May-22 15:30N 37°27' E 002°28'612.6
2017-May-22 15:00N 37°29' E 002°36'1212.5
2017-May-22 14:00N 37°31' E 002°51'712.4
2017-May-22 13:28N 37°32' E 002°59'612.2
2017-May-22 13:00N 37°33' E 003°07'612.4
2017-May-22 12:30N 37°34' E 003°14'612.5
2017-May-22 12:00N 37°34' E 003°22'612.4
2017-May-22 11:30N 37°35' E 003°30'612.3
2017-May-22 11:00N 37°36' E 003°38'612.2
2017-May-22 10:30N 37°36' E 003°45'612.2
2017-May-22 10:00N 37°37' E 003°53'612.1
2017-May-22 09:30N 37°37' E 004°01'612.0
2017-May-22 09:00N 37°38' E 004°08'611.9
2017-May-22 08:28N 37°39' E 004°16'511.7
2017-May-22 08:00N 37°39' E 004°23'611.7
2017-May-22 07:30N 37°40' E 004°30'611.4
2017-May-22 06:58N 37°40' E 004°38'511.0
2017-May-22 06:30N 37°41' E 004°44'713.3
2017-May-22 05:59N 37°42' E 004°53'814.5
2017-May-22 05:25N 37°43' E 005°03'6414.2
2017-May-22 00:54N 37°49' E 006°24'614.4
2017-May-22 00:30N 37°49' E 006°31'814.5
2017-May-21 23:57N 37°50' E 006°41'814.5
2017-May-21 23:26N 37°51' E 006°51'614.6
2017-May-21 23:00N 37°51' E 006°59'814.6
2017-May-21 22:28N 37°52' E 007°08'1614.4
2017-May-21 21:22N 37°53' E 007°29'614.2
2017-May-21 20:56N 37°54' E 007°36'714.3
2017-May-21 20:26N 37°54' E 007°45'614.5
2017-May-21 20:00N 37°55' E 007°53'714.4
2017-May-21 19:30N 37°55' E 008°02'714.3
2017-May-21 18:59N 37°56' E 008°12'914.0
2017-May-21 18:22N 37°56' E 008°23'613.6
2017-May-21 17:54N 37°57' E 008°31'513.1
2017-May-21 17:30N 37°58' E 008°37'813.6
2017-May-21 16:56N 37°59' E 008°47'714.2
2017-May-21 16:26N 37°59' E 008°56'714.2
2017-May-21 15:55N 38°00' E 009°05'22911.0
2017-May-20 19:01N 36°10' E 013°17'0 9.7
2017-May-20 19:00N 36°10' E 013°18'5 9.7
2017-May-20 18:27N 36°06' E 013°22'4 9.6
2017-May-20 18:00N 36°03' E 013°26'6 9.6
2017-May-20 17:24N 35°59' E 013°31'4 9.8
2017-May-20 17:00N 35°56' E 013°34'5 9.7
2017-May-20 16:30N 35°53' E 013°39'5 9.7
2017-May-20 16:00N 35°50' E 013°43'5 9.5
2017-May-20 15:30N 35°47' E 013°48'612.0
2017-May-20 15:00N 35°43' E 013°53'714.5
2017-May-20 14:30N 35°38' E 014°00'1514.6
2017-May-20 13:30N 35°29' E 014°14'815.3
2017-May-20 13:00N 35°27' E 014°23'815.1
2017-May-20 12:30N 35°26' E 014°32'815.0
2017-May-20 12:00N 35°24' E 014°42'714.9
2017-May-20 11:30N 35°23' E 014°50'714.9
2017-May-20 11:00N 35°21' E 014°59'714.9
2017-May-20 10:30N 35°19' E 015°08'714.9
2017-May-20 10:00N 35°18' E 015°17'714.9
2017-May-20 09:30N 35°16' E 015°26'714.8
2017-May-20 09:00N 35°14' E 015°35'1814.9
2017-May-20 07:46N 35°10' E 015°57'415.0
2017-May-20 07:30N 35°09' E 016°02'1515.2
2017-May-20 06:31N 35°05' E 016°19'315.1
2017-May-20 06:20N 35°05' E 016°23'515.1
2017-May-20 05:58N 35°03' E 016°29'7015.3
2017-May-20 01:22N 34°47' E 017°52'69113.6
2017-May-17 22:26N 32°00' E 031°15'1614.8
2017-May-17 21:19N 31°54' E 031°33'715.0
2017-May-17 20:52N 31°51' E 031°41'714.9
2017-May-17 20:23N 31°49' E 031°49'615.0
2017-May-17 20:01N 31°47' E 031°55'1014.6
2017-May-17 19:18N 31°41' E 032°05'413.9
2017-May-17 19:00N 31°38' E 032°08'914.0
2017-May-17 18:22N 31°31' E 032°15'714.8
2017-May-17 17:55N 31°28' E 032°22'511.9
2017-May-17 17:31N 31°24' E 032°24'713.5
2017-May-17 17:00N 31°17' E 032°22'5 9.5
2017-May-17 16:31N 31°13' E 032°20'4 7.6
2017-May-17 16:00N 31°09' E 032°19'4 8.3
2017-May-17 15:31N 31°05' E 032°19'4 8.9
2017-May-17 15:01N 31°00' E 032°19'10 9.5
2017-May-17 14:00N 30°51' E 032°19'  
Track history (hours):
 
Tides and Currents Weather Stations Pressure Air Temp Water Temp Dewpoint Dewpoint Depression Visibility Wind Speed Wind Dir Waves Ship Positions

Barcelona Knutsen

Last reported at 2017-May-24 07:45 UTC. Time now 2017-May-28 12:27 UTC.
Position N 35°47' W 007°28'.

Length 290 m; draft 10 m.

Type: Tanker. MMSI: 224436000.

Date/timePositionNaut miles runAvg speedWind from/ knotsBaromVisibWave heightAir tempDewpointWater temp
2017-May-24 07:45N 35°47' W 007°28'412.0
2017-May-24 07:25N 35°48' W 007°23'2113.3
2017-May-24 05:51N 35°51' W 006°58'2513.3
2017-May-24 03:56N 35°59' W 006°28'1010.0
2017-May-24 02:56N 35°58' W 006°16'712.4
2017-May-24 02:24N 35°58' W 006°08'712.3
2017-May-24 01:52N 35°58' W 005°60'712.4
2017-May-24 01:21N 35°58' W 005°52'412.2
2017-May-24 01:00N 35°58' W 005°46'713.0
2017-May-24 00:30N 35°58' W 005°38'612.8
2017-May-24 00:00N 35°59' W 005°31'612.3
2017-May-23 23:30N 36°02' W 005°24'2 4.9
2017-May-23 23:00N 36°03' W 005°21'4 8.1
2017-May-23 22:30N 36°04' W 005°16'713.7
2017-May-23 22:00N 36°04' W 005°08'713.5
2017-May-23 21:30N 36°04' W 004°60'20413.1
2017-May-23 05:58N 36°32' W 000°49'711.4
2017-May-23 05:24N 36°34' W 000°41'5711.2
2017-May-23 00:20N 36°52' E 000°26'3811.3
2017-May-22 21:00N 37°05' E 001°10'611.1
2017-May-22 20:26N 37°08' E 001°17'511.3
2017-May-22 20:00N 37°09' E 001°23'611.5
2017-May-22 19:30N 37°11' E 001°30'611.7
2017-May-22 19:00N 37°13' E 001°37'611.8
2017-May-22 18:30N 37°15' E 001°44'612.2
2017-May-22 18:00N 37°17' E 001°51'612.4
2017-May-22 17:30N 37°20' E 001°58'812.5
2017-May-22 16:54N 37°22' E 002°07'612.5
2017-May-22 16:24N 37°23' E 002°15'512.4
2017-May-22 16:00N 37°25' E 002°21'612.5
2017-May-22 15:30N 37°27' E 002°28'612.6
2017-May-22 15:00N 37°29' E 002°36'1212.5
2017-May-22 14:00N 37°31' E 002°51'712.4
2017-May-22 13:28N 37°32' E 002°59'612.2
2017-May-22 13:00N 37°33' E 003°07'612.4
2017-May-22 12:30N 37°34' E 003°14'612.5
2017-May-22 12:00N 37°34' E 003°22'612.4
2017-May-22 11:30N 37°35' E 003°30'612.3
2017-May-22 11:00N 37°36' E 003°38'612.2
2017-May-22 10:30N 37°36' E 003°45'612.2
2017-May-22 10:00N 37°37' E 003°53'612.1
2017-May-22 09:30N 37°37' E 004°01'612.0
2017-May-22 09:00N 37°38' E 004°08'611.9
2017-May-22 08:28N 37°39' E 004°16'511.7
2017-May-22 08:00N 37°39' E 004°23'611.7
2017-May-22 07:30N 37°40' E 004°30'611.4
2017-May-22 06:58N 37°40' E 004°38'511.0
2017-May-22 06:30N 37°41' E 004°44'713.3
2017-May-22 05:59N 37°42' E 004°53'814.5
2017-May-22 05:25N 37°43' E 005°03'6414.2
2017-May-22 00:54N 37°49' E 006°24'614.4
2017-May-22 00:30N 37°49' E 006°31'814.5
2017-May-21 23:57N 37°50' E 006°41'814.5
2017-May-21 23:26N 37°51' E 006°51'614.6
2017-May-21 23:00N 37°51' E 006°59'814.6
2017-May-21 22:28N 37°52' E 007°08'1614.4
2017-May-21 21:22N 37°53' E 007°29'614.2
2017-May-21 20:56N 37°54' E 007°36'714.3
2017-May-21 20:26N 37°54' E 007°45'614.5
2017-May-21 20:00N 37°55' E 007°53'714.4
2017-May-21 19:30N 37°55' E 008°02'714.3
2017-May-21 18:59N 37°56' E 008°12'914.0
2017-May-21 18:22N 37°56' E 008°23'613.6
2017-May-21 17:54N 37°57' E 008°31'513.1
2017-May-21 17:30N 37°58' E 008°37'813.6
2017-May-21 16:56N 37°59' E 008°47'714.2
2017-May-21 16:26N 37°59' E 008°56'714.2
2017-May-21 15:55N 38°00' E 009°05'22911.0
2017-May-20 19:01N 36°10' E 013°17'0 9.7
2017-May-20 19:00N 36°10' E 013°18'5 9.7
2017-May-20 18:27N 36°06' E 013°22'4 9.6
2017-May-20 18:00N 36°03' E 013°26'6 9.6
2017-May-20 17:24N 35°59' E 013°31'4 9.8
2017-May-20 17:00N 35°56' E 013°34'5 9.7
2017-May-20 16:30N 35°53' E 013°39'5 9.7
2017-May-20 16:00N 35°50' E 013°43'5 9.5
2017-May-20 15:30N 35°47' E 013°48'612.0
2017-May-20 15:00N 35°43' E 013°53'714.5
2017-May-20 14:30N 35°38' E 014°00'1514.6
2017-May-20 13:30N 35°29' E 014°14'815.3
2017-May-20 13:00N 35°27' E 014°23'815.1
2017-May-20 12:30N 35°26' E 014°32'815.0
2017-May-20 12:00N 35°24' E 014°42'714.9
2017-May-20 11:30N 35°23' E 014°50'714.9
2017-May-20 11:00N 35°21' E 014°59'714.9
2017-May-20 10:30N 35°19' E 015°08'714.9
2017-May-20 10:00N 35°18' E 015°17'714.9
2017-May-20 09:30N 35°16' E 015°26'714.8
2017-May-20 09:00N 35°14' E 015°35'1814.9
2017-May-20 07:46N 35°10' E 015°57'415.0
2017-May-20 07:30N 35°09' E 016°02'1515.2
2017-May-20 06:31N 35°05' E 016°19'315.1
2017-May-20 06:20N 35°05' E 016°23'515.1
2017-May-20 05:58N 35°03' E 016°29'7015.3
2017-May-20 01:22N 34°47' E 017°52'69113.6
2017-May-17 22:26N 32°00' E 031°15'1614.8
2017-May-17 21:19N 31°54' E 031°33'715.0
2017-May-17 20:52N 31°51' E 031°41'714.9
2017-May-17 20:23N 31°49' E 031°49'615.0
2017-May-17 20:01N 31°47' E 031°55'1014.6
2017-May-17 19:18N 31°41' E 032°05'413.9
2017-May-17 19:00N 31°38' E 032°08'914.0
2017-May-17 18:22N 31°31' E 032°15'714.8
2017-May-17 17:55N 31°28' E 032°22'511.9
2017-May-17 17:31N 31°24' E 032°24'713.5
2017-May-17 17:00N 31°17' E 032°22'5 9.5
2017-May-17 16:31N 31°13' E 032°20'4 7.6
2017-May-17 16:00N 31°09' E 032°19'4 8.3
2017-May-17 15:31N 31°05' E 032°19'4 8.9
2017-May-17 15:01N 31°00' E 032°19'10 9.5
2017-May-17 14:00N 30°51' E 032°19'  

Dump ship's entire track history